RA1815 UNBB-UNBB
Flight info
| Callsign | RA1815 |
|---|---|
| Flight time | 0h 21m |
| Altitude | 3000 |
| Route | RA/A030 |
| Aircraft | C172/L-VGD/N |
Departure
| Time | 2026-05-08 13:45 |
|---|---|
| Airport | Barnaul Gherman Titov International Airport (UNBB) |
Arrival
| Time | 2026-05-08 14:07 |
|---|---|
| Airport | Barnaul Gherman Titov International Airport (UNBB) |
| Time | Latitude | Longitude | Altitude | Speed | Heading |
|---|---|---|---|---|---|
| 2026-05-08 13:37 | 53.36233 | 83.54611 | 833 ft | 0 kts | 248° |
| 2026-05-08 13:40 | 53.36222 | 83.54570 | 833 ft | 12 kts | 247° |
| 2026-05-08 13:41 | 53.36278 | 83.54534 | 831 ft | 11 kts | 45° |
| 2026-05-08 13:41 | 53.36302 | 83.54630 | 832 ft | 10 kts | 64° |
| 2026-05-08 13:41 | 53.36342 | 83.54787 | 832 ft | 19 kts | 68° |
| 2026-05-08 13:41 | 53.36401 | 83.55024 | 837 ft | 25 kts | 68° |
| 2026-05-08 13:42 | 53.36480 | 83.55335 | 838 ft | 32 kts | 66° |
| 2026-05-08 13:42 | 53.36571 | 83.55704 | 836 ft | 35 kts | 67° |
| 2026-05-08 13:42 | 53.36643 | 83.55988 | 835 ft | 10 kts | 60° |
| 2026-05-08 13:42 | 53.36701 | 83.56005 | 837 ft | 9 kts | 333° |
| 2026-05-08 13:43 | 53.36767 | 83.55961 | 837 ft | 12 kts | 338° |
| 2026-05-08 13:43 | 53.36790 | 83.55848 | 834 ft | 5 kts | 246° |
| 2026-05-08 13:43 | 53.36790 | 83.55846 | 834 ft | 0 kts | 246° |
| 2026-05-08 13:44 | 53.36786 | 83.55832 | 835 ft | 11 kts | 245° |
| 2026-05-08 13:44 | 53.36690 | 83.55444 | 837 ft | 59 kts | 248° |
| 2026-05-08 13:44 | 53.36487 | 83.54655 | 898 ft | 83 kts | 246° |
| 2026-05-08 13:45 | 53.36243 | 83.53733 | 1055 ft | 89 kts | 245° |
| 2026-05-08 13:45 | 53.35964 | 83.52770 | 1188 ft | 95 kts | 243° |
| 2026-05-08 13:45 | 53.35655 | 83.51769 | 1320 ft | 98 kts | 242° |
| 2026-05-08 13:45 | 53.35366 | 83.50718 | 1457 ft | 100 kts | 246° |
| 2026-05-08 13:46 | 53.34952 | 83.49845 | 1571 ft | 102 kts | 198° |
| 2026-05-08 13:46 | 53.34262 | 83.50008 | 1698 ft | 102 kts | 165° |
| 2026-05-08 13:46 | 53.33603 | 83.50431 | 1829 ft | 102 kts | 157° |
| 2026-05-08 13:46 | 53.32973 | 83.50969 | 1938 ft | 104 kts | 135° |
| 2026-05-08 13:47 | 53.32853 | 83.52159 | 1961 ft | 116 kts | 70° |
| 2026-05-08 13:47 | 53.33205 | 83.53413 | 1975 ft | 122 kts | 66° |
| 2026-05-08 13:47 | 53.33562 | 83.54726 | 1974 ft | 125 kts | 67° |
| 2026-05-08 13:47 | 53.33920 | 83.56067 | 1974 ft | 127 kts | 67° |
| 2026-05-08 13:48 | 53.34279 | 83.57419 | 1974 ft | 127 kts | 67° |
| 2026-05-08 13:48 | 53.34640 | 83.58776 | 1974 ft | 128 kts | 67° |
| 2026-05-08 13:48 | 53.35000 | 83.60138 | 1882 ft | 128 kts | 67° |
| 2026-05-08 13:48 | 53.35365 | 83.61508 | 1757 ft | 129 kts | 67° |
| 2026-05-08 13:49 | 53.35735 | 83.62883 | 1634 ft | 130 kts | 67° |
| 2026-05-08 13:49 | 53.36325 | 83.63977 | 1482 ft | 132 kts | 23° |
| 2026-05-08 13:49 | 53.37185 | 83.63863 | 1458 ft | 126 kts | 337° |
| 2026-05-08 13:49 | 53.37880 | 83.63074 | 1455 ft | 121 kts | 301° |
| 2026-05-08 13:50 | 53.38058 | 83.61735 | 1458 ft | 118 kts | 275° |
| 2026-05-08 13:50 | 53.37884 | 83.60426 | 1424 ft | 118 kts | 248° |
| 2026-05-08 13:50 | 53.37560 | 83.59108 | 1245 ft | 121 kts | 248° |
| 2026-05-08 13:50 | 53.37251 | 83.57808 | 1105 ft | 120 kts | 249° |
| 2026-05-08 13:51 | 53.36943 | 83.56496 | 930 ft | 122 kts | 248° |
| 2026-05-08 13:51 | 53.36622 | 83.55205 | 841 ft | 117 kts | 248° |
| 2026-05-08 13:51 | 53.36339 | 83.54039 | 836 ft | 101 kts | 250° |
| 2026-05-08 13:51 | 53.36070 | 83.52930 | 977 ft | 105 kts | 248° |
| 2026-05-08 13:52 | 53.35778 | 83.51776 | 1093 ft | 110 kts | 247° |
| 2026-05-08 13:52 | 53.35476 | 83.50591 | 1219 ft | 111 kts | 247° |
| 2026-05-08 13:52 | 53.35173 | 83.49393 | 1348 ft | 112 kts | 247° |
| 2026-05-08 13:52 | 53.34795 | 83.48267 | 1459 ft | 112 kts | 217° |
| 2026-05-08 13:53 | 53.34057 | 83.48201 | 1572 ft | 109 kts | 156° |
| 2026-05-08 13:53 | 53.33418 | 83.48699 | 1687 ft | 95 kts | 156° |
| 2026-05-08 13:53 | 53.32841 | 83.49120 | 1789 ft | 86 kts | 157° |
| 2026-05-08 13:53 | 53.32317 | 83.49516 | 1882 ft | 79 kts | 147° |
| 2026-05-08 13:54 | 53.32220 | 83.50293 | 1957 ft | 75 kts | 62° |
| 2026-05-08 13:54 | 53.32459 | 83.51110 | 1961 ft | 81 kts | 67° |
| 2026-05-08 13:54 | 53.32702 | 83.51997 | 1972 ft | 86 kts | 67° |
| 2026-05-08 13:54 | 53.32953 | 83.52912 | 1977 ft | 90 kts | 67° |
| 2026-05-08 13:55 | 53.33218 | 83.53882 | 1974 ft | 93 kts | 67° |
| 2026-05-08 13:55 | 53.33491 | 83.54882 | 1971 ft | 96 kts | 67° |
| 2026-05-08 13:55 | 53.34050 | 83.56934 | 1971 ft | 99 kts | 67° |
| 2026-05-08 13:56 | 53.34355 | 83.58051 | 1975 ft | 111 kts | 67° |
| 2026-05-08 13:56 | 53.34683 | 83.59264 | 1977 ft | 117 kts | 67° |
| 2026-05-08 13:56 | 53.35024 | 83.60527 | 1978 ft | 120 kts | 67° |
| 2026-05-08 13:56 | 53.35004 | 83.61853 | 1976 ft | 120 kts | 126° |
| 2026-05-08 13:57 | 53.34306 | 83.62570 | 1975 ft | 120 kts | 159° |
| 2026-05-08 13:57 | 53.33533 | 83.63100 | 1975 ft | 121 kts | 158° |
| 2026-05-08 13:57 | 53.32761 | 83.63653 | 1971 ft | 121 kts | 157° |
| 2026-05-08 13:57 | 53.31988 | 83.64209 | 1974 ft | 121 kts | 157° |
| 2026-05-08 13:58 | 53.31216 | 83.64764 | 1970 ft | 121 kts | 157° |
| 2026-05-08 13:58 | 53.30609 | 83.65631 | 1955 ft | 121 kts | 110° |
| 2026-05-08 13:58 | 53.30742 | 83.66983 | 1961 ft | 121 kts | 65° |
| 2026-05-08 13:58 | 53.31108 | 83.68255 | 1964 ft | 121 kts | 66° |
| 2026-05-08 13:59 | 53.31459 | 83.69538 | 1966 ft | 122 kts | 67° |
| 2026-05-08 13:59 | 53.31811 | 83.70826 | 1970 ft | 122 kts | 67° |
| 2026-05-08 13:59 | 53.32162 | 83.72117 | 1967 ft | 122 kts | 67° |
| 2026-05-08 13:59 | 53.32513 | 83.73409 | 1972 ft | 122 kts | 67° |
| 2026-05-08 14:00 | 53.32865 | 83.74703 | 1971 ft | 122 kts | 67° |
| 2026-05-08 14:00 | 53.33219 | 83.75999 | 1972 ft | 123 kts | 67° |
| 2026-05-08 14:00 | 53.33573 | 83.77298 | 1972 ft | 123 kts | 67° |
| 2026-05-08 14:00 | 53.33926 | 83.78598 | 1979 ft | 123 kts | 67° |
| 2026-05-08 14:01 | 53.34441 | 83.79698 | 1958 ft | 124 kts | 27° |
| 2026-05-08 14:01 | 53.35278 | 83.79643 | 1959 ft | 125 kts | 337° |
| 2026-05-08 14:01 | 53.36069 | 83.79034 | 1963 ft | 125 kts | 336° |
| 2026-05-08 14:01 | 53.36864 | 83.78443 | 1969 ft | 125 kts | 337° |
| 2026-05-08 14:02 | 53.37661 | 83.77859 | 1963 ft | 125 kts | 337° |
| 2026-05-08 14:02 | 53.38459 | 83.77277 | 1963 ft | 125 kts | 337° |
| 2026-05-08 14:02 | 53.39248 | 83.76702 | 2046 ft | 119 kts | 337° |
| 2026-05-08 14:02 | 53.39984 | 83.76163 | 2210 ft | 113 kts | 337° |
| 2026-05-08 14:03 | 53.40520 | 83.75298 | 2362 ft | 111 kts | 283° |
| 2026-05-08 14:03 | 53.40570 | 83.74041 | 2532 ft | 107 kts | 277° |
| 2026-05-08 14:03 | 53.40651 | 83.72807 | 2661 ft | 109 kts | 277° |
| 2026-05-08 14:03 | 53.40658 | 83.71419 | 2526 ft | 128 kts | 266° |
| 2026-05-08 14:04 | 53.40366 | 83.69987 | 2405 ft | 129 kts | 243° |
| 2026-05-08 14:04 | 53.39945 | 83.68699 | 2366 ft | 125 kts | 242° |
| 2026-05-08 14:04 | 53.39567 | 83.67356 | 2225 ft | 129 kts | 246° |
| 2026-05-08 14:04 | 53.39222 | 83.65954 | 2074 ft | 131 kts | 248° |
| 2026-05-08 14:05 | 53.38884 | 83.64517 | 1898 ft | 133 kts | 249° |
| 2026-05-08 14:05 | 53.38560 | 83.63089 | 1787 ft | 131 kts | 248° |
| 2026-05-08 14:05 | 53.38201 | 83.61654 | 1626 ft | 136 kts | 245° |
| 2026-05-08 14:05 | 53.37837 | 83.60224 | 1474 ft | 126 kts | 248° |
| 2026-05-08 14:06 | 53.37534 | 83.58935 | 1270 ft | 112 kts | 248° |
| 2026-05-08 14:06 | 53.37245 | 83.57788 | 1161 ft | 100 kts | 248° |
| 2026-05-08 14:06 | 53.37002 | 83.56765 | 989 ft | 88 kts | 249° |
| 2026-05-08 14:06 | 53.36781 | 83.55849 | 859 ft | 82 kts | 249° |
| 2026-05-08 14:07 | 53.36572 | 83.55025 | 835 ft | 72 kts | 249° |
| 2026-05-08 14:07 | 53.36415 | 83.54347 | 829 ft | 52 kts | 245° |
| 2026-05-08 14:07 | 53.36311 | 83.53950 | 834 ft | 21 kts | 233° |
| 2026-05-08 14:07 | 53.36292 | 83.53840 | 835 ft | 9 kts | 346° |
| 2026-05-08 14:08 | 53.36311 | 83.53910 | 834 ft | 7 kts | 88° |
| 2026-05-08 14:08 | 53.36324 | 83.53988 | 834 ft | 8 kts | 66° |
| 2026-05-08 14:08 | 53.36364 | 83.54140 | 831 ft | 21 kts | 69° |
| 2026-05-08 14:08 | 53.36432 | 83.54420 | 829 ft | 30 kts | 67° |
| 2026-05-08 14:09 | 53.36523 | 83.54782 | 834 ft | 36 kts | 67° |
| 2026-05-08 14:09 | 53.36630 | 83.55207 | 836 ft | 42 kts | 68° |
| 2026-05-08 14:09 | 53.36744 | 83.55670 | 835 ft | 40 kts | 67° |
| 2026-05-08 14:09 | 53.36796 | 83.55907 | 837 ft | 13 kts | 102° |
| 2026-05-08 14:10 | 53.36736 | 83.55983 | 836 ft | 10 kts | 155° |
| 2026-05-08 14:10 | 53.36679 | 83.56020 | 835 ft | 9 kts | 172° |
| 2026-05-08 14:10 | 53.36634 | 83.55956 | 835 ft | 9 kts | 248° |
| 2026-05-08 14:10 | 53.36611 | 83.55863 | 834 ft | 10 kts | 246° |
| 2026-05-08 14:11 | 53.36582 | 83.55747 | 836 ft | 11 kts | 247° |
| 2026-05-08 14:11 | 53.36549 | 83.55617 | 837 ft | 14 kts | 246° |
| 2026-05-08 14:11 | 53.36501 | 83.55422 | 837 ft | 22 kts | 247° |
| 2026-05-08 14:11 | 53.36437 | 83.55163 | 837 ft | 23 kts | 248° |
| 2026-05-08 14:12 | 53.36396 | 83.55051 | 837 ft | 5 kts | 176° |
| 2026-05-08 14:12 | 53.36369 | 83.55075 | 834 ft | 5 kts | 168° |
| 2026-05-08 14:12 | 53.36342 | 83.55024 | 836 ft | 9 kts | 247° |
| 2026-05-08 14:12 | 53.36326 | 83.54966 | 836 ft | 0 kts | 246° |